createdAt,value
2019-02-07T00:00:52.889Z,28.30
2019-02-07T00:03:22.331Z,27.32
2019-02-07T00:05:51.857Z,27.00
2019-02-07T00:08:21.761Z,28.62
2019-02-07T00:10:51.211Z,28.60
2019-02-07T00:13:20.601Z,27.62
2019-02-07T00:15:50.914Z,26.20
2019-02-07T00:18:20.225Z,26.48
2019-02-07T00:20:49.543Z,26.40
2019-02-07T00:23:19.378Z,27.85
2019-02-07T00:25:48.797Z,26.10
2019-02-07T00:28:18.351Z,25.02
2019-02-07T00:30:50.560Z,26.43
2019-02-07T00:33:19.887Z,25.43
2019-02-07T00:35:49.222Z,26.37
2019-02-07T00:38:18.615Z,26.77
2019-02-07T00:40:48.209Z,26.87
2019-02-07T00:43:17.576Z,26.25
2019-02-07T00:45:47.051Z,25.12
2019-02-07T00:48:16.469Z,25.88
2019-02-07T00:50:46.363Z,26.00
2019-02-07T00:53:15.856Z,27.45
2019-02-07T00:55:45.429Z,27.25
2019-02-07T00:58:14.727Z,27.27
2019-02-07T01:00:44.136Z,27.57
2019-02-07T01:03:13.601Z,26.80
2019-02-07T01:06:02.868Z,24.12
2019-02-07T01:08:32.222Z,27.07
2019-02-07T01:11:01.569Z,25.43
2019-02-07T01:13:31.518Z,26.60
2019-02-07T01:16:01.611Z,25.92
2019-02-07T01:18:31.019Z,27.60
2019-02-07T01:21:00.563Z,26.87
2019-02-07T01:23:29.997Z,26.68
2019-02-07T01:25:59.454Z,26.50
2019-02-07T01:28:28.960Z,27.93
2019-02-07T01:30:58.823Z,29.20
2019-02-07T01:33:28.186Z,30.40
2019-02-07T01:35:57.603Z,31.05
2019-02-07T01:38:27.032Z,32.13
2019-02-07T01:40:56.468Z,32.37
2019-02-07T01:43:27.912Z,33.50
2019-02-07T01:45:57.726Z,33.63
2019-02-07T01:48:28.026Z,36.15
2019-02-07T01:50:57.425Z,35.57
2019-02-07T01:53:26.876Z,36.88
2019-02-07T01:55:56.311Z,37.10
2019-02-07T01:58:25.799Z,35.73
2019-02-07T02:00:55.627Z,35.73
2019-02-07T02:03:25.021Z,34.33
2019-02-07T02:05:54.498Z,35.60
2019-02-07T02:08:23.861Z,36.75
2019-02-07T02:10:53.304Z,35.80
2019-02-07T02:13:22.716Z,36.42
2019-02-07T02:15:52.593Z,38.13
2019-02-07T02:18:21.975Z,38.67
2019-02-07T02:20:51.476Z,38.50
2019-02-07T02:23:20.925Z,40.28
2019-02-07T02:25:50.356Z,41.02
2019-02-07T02:28:19.847Z,39.23
2019-02-07T02:30:49.281Z,41.23
2019-02-07T02:33:18.640Z,42.48
2019-02-07T02:35:48.155Z,42.75
2019-02-07T02:38:17.524Z,43.78
2019-02-07T02:40:46.882Z,43.07
2019-02-07T02:43:16.303Z,46.35
2019-02-07T02:45:45.862Z,44.58
2019-02-07T02:48:15.293Z,45.05
2019-02-07T02:50:44.699Z,46.17
2019-02-07T02:53:14.078Z,45.98
2019-02-07T02:55:43.902Z,45.17
2019-02-07T02:58:13.297Z,47.13
2019-02-07T03:00:44.695Z,47.03
2019-02-07T03:03:18.755Z,45.67
2019-02-07T03:05:49.810Z,42.05
2019-02-07T03:08:37.003Z,46.58
2019-02-07T03:11:26.475Z,45.00
2019-02-07T03:14:12.399Z,46.20
2019-02-07T03:16:50.036Z,44.67
2019-02-07T03:19:30.672Z,45.80
2019-02-07T03:22:01.647Z,43.73
2019-02-07T03:24:51.096Z,44.18
2019-02-07T03:27:31.064Z,42.90
2019-02-07T03:30:19.475Z,44.30
2019-02-07T03:32:59.718Z,43.08
2019-02-07T03:35:30.766Z,40.63
2019-02-07T03:38:10.554Z,41.00
2019-02-07T03:40:50.638Z,42.70
2019-02-07T03:43:21.650Z,40.78
2019-02-07T03:46:05.115Z,42.83
2019-02-07T03:48:47.949Z,40.88
2019-02-07T03:51:24.804Z,41.80
2019-02-07T03:53:55.854Z,40.48
2019-02-07T03:56:41.947Z,42.60
2019-02-07T03:59:19.647Z,41.42
2019-02-07T04:02:07.175Z,40.37
2019-02-07T04:04:41.124Z,41.05
2019-02-07T04:07:18.810Z,40.45
2019-02-07T04:10:04.966Z,40.63
2019-02-07T04:12:36.088Z,41.00
2019-02-07T04:15:33.847Z,39.83
2019-02-07T04:18:10.846Z,41.00
2019-02-07T04:20:48.029Z,41.37
2019-02-07T04:23:19.813Z,40.08
2019-02-07T04:26:07.322Z,39.55
2019-02-07T04:28:38.348Z,40.50
2019-02-07T04:31:15.492Z,39.23
2019-02-07T04:34:02.908Z,41.48
2019-02-07T04:36:36.365Z,39.63
2019-02-07T04:39:12.564Z,38.80
2019-02-07T04:42:00.197Z,39.07
2019-02-07T04:44:37.175Z,39.40
2019-02-07T04:47:20.140Z,38.53
2019-02-07T04:49:53.872Z,37.67
2019-02-07T04:52:36.338Z,38.50
2019-02-07T04:55:25.946Z,35.73
2019-02-07T04:58:08.791Z,37.17
2019-02-07T05:00:51.865Z,36.93
2019-02-07T05:03:39.005Z,36.60
2019-02-07T05:06:16.085Z,37.17
2019-02-07T05:09:03.388Z,36.30
2019-02-07T05:11:34.405Z,35.60
2019-02-07T05:14:05.464Z,36.20
2019-02-07T05:16:39.865Z,37.15
2019-02-07T05:19:12.016Z,36.88
2019-02-07T05:21:52.108Z,35.50
2019-02-07T05:24:26.269Z,36.48
2019-02-07T05:27:00.258Z,36.85
2019-02-07T05:29:47.148Z,36.75
2019-02-07T05:32:36.233Z,37.33
2019-02-07T05:35:27.725Z,35.98
2019-02-07T05:38:15.483Z,35.28
2019-02-07T05:40:46.432Z,33.07
2019-02-07T05:43:33.966Z,33.48
2019-02-07T05:46:04.921Z,35.50
2019-02-07T05:48:35.858Z,33.40
2019-02-07T05:51:12.982Z,33.50
2019-02-07T05:53:44.205Z,32.63
2019-02-07T05:56:15.139Z,34.75
2019-02-07T05:59:04.594Z,34.70
2019-02-07T06:01:50.913Z,34.10
2019-02-07T06:04:25.379Z,32.67
2019-02-07T06:07:02.011Z,33.13
2019-02-07T06:09:49.026Z,32.20
2019-02-07T06:12:28.764Z,34.10
2019-02-07T06:15:08.585Z,34.98
2019-02-07T06:17:42.549Z,33.92
2019-02-07T06:20:30.128Z,34.27
2019-02-07T06:23:17.108Z,33.05
2019-02-07T06:25:53.976Z,33.48
2019-02-07T06:28:30.871Z,34.67
2019-02-07T06:31:01.891Z,32.43
2019-02-07T06:33:32.765Z,34.00
2019-02-07T06:36:03.656Z,34.30
2019-02-07T06:38:51.029Z,35.15
2019-02-07T06:41:30.092Z,31.93
2019-02-07T06:44:07.186Z,34.25
2019-02-07T06:46:37.295Z,34.85
2019-02-07T06:49:10.441Z,34.20
2019-02-07T06:54:38.021Z,34.03
2019-02-07T06:57:08.614Z,33.25
2019-02-07T06:59:44.894Z,33.30
2019-02-07T07:02:31.113Z,32.10
2019-02-07T07:05:06.802Z,32.17
2019-02-07T07:07:40.089Z,30.85
2019-02-07T07:10:19.160Z,31.48
2019-02-07T07:12:55.078Z,30.53
2019-02-07T07:15:27.874Z,27.37
2019-02-07T07:18:00.523Z,28.27
2019-02-07T07:20:30.642Z,29.55
2019-02-07T07:23:04.184Z,28.77
2019-02-07T07:25:42.996Z,28.53
2019-02-07T07:28:29.521Z,28.07
2019-02-07T07:30:59.762Z,27.93
2019-02-07T07:33:36.076Z,29.33
2019-02-07T07:36:18.662Z,28.57
2019-02-07T07:38:48.780Z,29.33
2019-02-07T07:41:24.963Z,27.70
2019-02-07T07:43:58.269Z,28.63
2019-02-07T07:46:44.674Z,28.17
2019-02-07T07:49:20.489Z,28.40
2019-02-07T07:51:50.687Z,28.67
2019-02-07T07:54:37.271Z,27.67
2019-02-07T07:57:23.686Z,27.20
2019-02-07T08:00:12.340Z,25.67
2019-02-07T08:02:42.581Z,26.23
2019-02-07T08:05:15.563Z,25.57
2019-02-07T08:08:03.901Z,26.10
2019-02-07T08:10:43.248Z,22.57
2019-02-07T08:13:13.483Z,22.93
2019-02-07T08:15:43.686Z,22.57
2019-02-07T08:18:16.516Z,22.60
2019-02-07T08:20:47.077Z,22.20
2019-02-07T08:23:33.191Z,23.40
2019-02-07T08:26:16.205Z,23.87
2019-02-07T08:28:46.310Z,23.87
2019-02-07T08:31:32.424Z,23.00
2019-02-07T08:34:14.617Z,21.50
2019-02-07T08:37:02.083Z,22.90
2019-02-07T08:39:47.616Z,23.13
2019-02-07T08:42:20.464Z,23.90
2019-02-07T08:44:55.109Z,23.07
2019-02-07T08:47:41.239Z,23.93
2019-02-07T08:50:16.271Z,22.33
2019-02-07T08:52:46.425Z,23.97
2019-02-07T08:55:16.930Z,23.40
2019-02-07T08:58:05.146Z,23.40
2019-02-07T09:00:50.225Z,21.77
2019-02-07T09:03:29.617Z,20.67
2019-02-07T09:06:02.937Z,20.30
2019-02-07T09:08:42.162Z,19.80
2019-02-07T09:11:18.281Z,19.25
2019-02-07T09:13:57.354Z,18.00
2019-02-07T09:16:33.594Z,19.17
2019-02-07T09:19:03.704Z,18.67
2019-02-07T09:21:34.393Z,19.20
2019-02-07T09:24:04.624Z,17.10
2019-02-07T09:26:44.539Z,19.03
2019-02-07T09:29:30.934Z,19.57
2019-02-07T09:32:07.303Z,17.73
2019-02-07T09:34:37.765Z,17.37
2019-02-07T09:37:07.875Z,17.33
2019-02-07T09:39:40.590Z,17.77
2019-02-07T09:42:11.940Z,17.73
2019-02-07T09:44:54.264Z,18.43
2019-02-07T09:47:27.081Z,18.47
2019-02-07T09:49:59.702Z,18.87
2019-02-07T09:52:39.149Z,24.73
2019-02-07T09:55:14.646Z,23.87
2019-02-07T09:57:44.835Z,20.93
2019-02-07T10:00:22.841Z,19.03
2019-02-07T10:02:54.095Z,20.50
2019-02-07T10:05:33.084Z,17.57
2019-02-07T10:08:08.755Z,15.03
2019-02-07T10:10:41.698Z,15.80
2019-02-07T10:13:11.940Z,17.47
2019-02-07T10:15:48.041Z,16.53
2019-02-07T10:18:34.217Z,16.80
2019-02-07T10:21:20.273Z,17.37
2019-02-07T10:23:50.396Z,16.70
2019-02-07T10:26:32.223Z,17.43
2019-02-07T10:29:08.959Z,16.43
2019-02-07T10:31:45.541Z,16.03
2019-02-07T10:34:27.611Z,16.83
2019-02-07T10:36:57.909Z,16.40
2019-02-07T10:39:28.077Z,18.33
2019-02-07T10:42:01.652Z,16.77
2019-02-07T10:44:32.068Z,15.23
2019-02-07T10:47:02.310Z,16.70
2019-02-07T10:49:32.416Z,15.93
2019-02-07T10:52:19.553Z,15.03
2019-02-07T10:54:49.755Z,14.43
2019-02-07T10:57:25.950Z,14.63
2019-02-07T10:59:59.799Z,13.83
2019-02-07T11:02:42.348Z,13.10
2019-02-07T11:05:16.915Z,13.27
2019-02-07T11:07:49.897Z,13.03
2019-02-07T11:10:36.266Z,13.73
2019-02-07T11:13:25.068Z,12.33
2019-02-07T11:15:58.137Z,12.90
2019-02-07T11:18:55.284Z,12.47
2019-02-07T11:21:17.509Z,11.80
2019-02-07T11:23:47.681Z,13.07
2019-02-07T11:26:17.908Z,12.97
2019-02-07T11:28:56.544Z,13.07
2019-02-07T11:31:29.347Z,13.57
2019-02-07T11:34:11.893Z,13.33
2019-02-07T11:36:53.813Z,13.87
2019-02-07T11:39:22.470Z,14.93
2019-02-07T11:41:58.460Z,13.47
2019-02-07T11:44:38.810Z,14.73
2019-02-07T11:47:15.716Z,15.10
2019-02-07T11:49:52.145Z,15.33
2019-02-07T11:52:40.331Z,14.60
2019-02-07T11:55:26.749Z,14.97
2019-02-07T11:58:06.673Z,15.60
2019-02-07T12:00:54.058Z,14.23
2019-02-07T12:03:36.351Z,12.93
2019-02-07T12:06:22.890Z,12.80
2019-02-07T12:09:10.573Z,14.70
2019-02-07T12:11:56.046Z,13.93
2019-02-07T12:14:32.168Z,13.57
2019-02-07T12:17:09.323Z,13.87
2019-02-07T12:19:45.462Z,12.63
2019-02-07T12:22:32.043Z,13.40
2019-02-07T12:25:08.245Z,13.53
2019-02-07T12:27:38.417Z,13.70
2019-02-07T12:30:11.625Z,13.63
2019-02-07T12:32:41.997Z,14.00
2019-02-07T12:35:15.150Z,15.23
2019-02-07T12:38:01.669Z,15.40
2019-02-07T12:40:40.906Z,15.10
2019-02-07T12:43:13.844Z,15.10
2019-02-07T12:45:43.947Z,15.50
2019-02-07T12:48:20.096Z,15.93
2019-02-07T12:51:08.350Z,15.93
2019-02-07T12:53:44.580Z,15.70
2019-02-07T12:56:32.479Z,14.97
2019-02-07T12:59:19.225Z,15.20
2019-02-07T13:01:55.089Z,14.70
2019-02-07T13:04:37.622Z,16.17
2019-02-07T13:07:24.436Z,16.30
2019-02-07T13:10:01.063Z,15.43
2019-02-07T13:12:36.899Z,14.10
2019-02-07T13:15:25.891Z,14.63
2019-02-07T13:17:59.206Z,15.10
2019-02-07T13:20:37.992Z,17.30
2019-02-07T13:23:10.893Z,18.90
2019-02-07T13:25:40.973Z,19.83
2019-02-07T13:28:14.695Z,17.90
2019-02-07T13:31:03.958Z,18.53
2019-02-07T13:33:50.555Z,15.83
2019-02-07T13:36:23.724Z,15.17
2019-02-07T13:39:09.177Z,15.27
2019-02-07T13:41:41.748Z,15.30
2019-02-07T13:44:19.307Z,15.20
2019-02-07T13:47:05.731Z,14.60
2019-02-07T13:49:52.118Z,17.17
2019-02-07T13:52:22.105Z,21.03
2019-02-07T13:55:07.733Z,19.37
2019-02-07T13:57:37.831Z,14.27
2019-02-07T14:00:10.993Z,15.03
2019-02-07T14:02:41.224Z,15.30
2019-02-07T14:05:20.655Z,15.37
2019-02-07T14:07:50.960Z,15.47
2019-02-07T14:10:22.158Z,16.77
2019-02-07T14:12:54.995Z,16.60
2019-02-07T14:15:30.863Z,17.77
2019-02-07T14:18:10.290Z,19.77
2019-02-07T14:20:56.699Z,19.47
2019-02-07T14:23:29.831Z,20.17
2019-02-07T14:25:59.734Z,18.77
2019-02-07T14:28:29.906Z,20.03
2019-02-07T14:31:00.079Z,20.90
2019-02-07T14:33:32.911Z,22.27
2019-02-07T14:36:08.876Z,21.37
2019-02-07T14:41:31.991Z,21.57
2019-02-07T14:44:02.363Z,21.63
2019-02-07T14:46:38.193Z,27.87
2019-02-07T14:49:06.718Z,19.17
2019-02-07T14:51:35.179Z,19.53
2019-02-07T14:54:03.779Z,17.00
2019-02-07T14:56:32.550Z,16.57
2019-02-07T14:59:01.513Z,19.07
2019-02-07T15:01:30.213Z,16.50
2019-02-07T15:03:59.820Z,16.23
2019-02-07T15:06:28.456Z,17.13
2019-02-07T15:08:56.978Z,17.10
2019-02-07T15:11:25.700Z,18.40
2019-02-07T15:13:54.278Z,16.73
2019-02-07T15:16:23.770Z,17.77
2019-02-07T15:18:52.296Z,19.40
2019-02-07T15:21:20.814Z,22.27
2019-02-07T15:23:49.273Z,18.93
2019-02-07T15:26:17.800Z,16.87
2019-02-07T15:28:46.677Z,20.17
2019-02-07T15:31:15.278Z,19.10
2019-02-07T15:33:43.748Z,18.93
2019-02-07T15:36:13.440Z,17.13
2019-02-07T15:38:42.177Z,17.60
2019-02-07T15:41:10.972Z,18.47
2019-02-07T15:43:40.714Z,17.90
2019-02-07T15:46:11.200Z,19.00
2019-02-07T15:48:39.674Z,18.33
2019-02-07T15:51:09.417Z,18.10
2019-02-07T15:53:38.026Z,19.60
2019-02-07T15:56:07.259Z,18.07
2019-02-07T15:58:41.834Z,18.37
2019-02-07T16:01:15.161Z,19.40
2019-02-07T16:03:48.864Z,20.87
2019-02-07T16:06:18.049Z,20.10
2019-02-07T16:08:47.322Z,20.83
2019-02-07T16:11:16.922Z,21.50
2019-02-07T16:13:46.178Z,23.47
2019-02-07T16:16:15.477Z,21.63
2019-02-07T16:18:44.843Z,20.03
2019-02-07T16:21:14.197Z,20.67
2019-02-07T16:23:43.466Z,20.60
2019-02-07T16:26:13.073Z,20.77
2019-02-07T16:28:42.450Z,21.27
2019-02-07T16:31:11.750Z,22.47
2019-02-07T16:33:41.052Z,22.87
2019-02-07T16:36:10.806Z,24.00
2019-02-07T16:38:40.103Z,23.20
2019-02-07T16:41:10.644Z,25.37
2019-02-07T16:43:40.284Z,21.87
2019-02-07T16:46:09.605Z,23.17
2019-02-07T16:48:38.880Z,23.83
2019-02-07T16:51:08.250Z,24.97
2019-02-07T16:53:37.535Z,22.53
2019-02-07T16:56:07.040Z,21.97
2019-02-07T16:58:36.301Z,20.97
2019-02-07T17:01:07.235Z,22.67
2019-02-07T17:03:36.604Z,23.07
2019-02-07T17:06:06.208Z,23.33
2019-02-07T17:08:35.566Z,23.50
2019-02-07T17:11:05.951Z,22.73
2019-02-07T17:13:37.536Z,23.43
2019-02-07T17:16:07.412Z,25.30
2019-02-07T17:18:36.778Z,24.03
2019-02-07T17:21:12.074Z,25.87
2019-02-07T17:23:37.363Z,27.83
2019-02-07T17:26:06.838Z,27.80
2019-02-07T17:28:36.224Z,26.57
2019-02-07T17:31:05.806Z,27.17
2019-02-07T17:33:35.043Z,27.63
2019-02-07T17:36:04.462Z,28.87
2019-02-07T17:38:34.456Z,28.00
2019-02-07T17:41:04.031Z,29.40
2019-02-07T17:43:33.378Z,31.73
2019-02-07T17:46:02.889Z,34.47
2019-02-07T17:48:32.190Z,30.97
2019-02-07T17:51:01.492Z,31.97
2019-02-07T17:53:31.037Z,29.43
2019-02-07T17:56:00.414Z,31.03
2019-02-07T17:58:29.717Z,28.60
2019-02-07T18:01:06.060Z,26.47
2019-02-07T18:03:35.453Z,25.07
2019-02-07T18:06:05.683Z,28.30
2019-02-07T18:08:35.320Z,26.43
2019-02-07T18:11:05.319Z,25.88
2019-02-07T18:13:34.984Z,27.90
2019-02-07T18:16:08.046Z,27.27
2019-02-07T18:18:37.358Z,22.33
2019-02-07T18:21:06.878Z,18.20
2019-02-07T18:23:36.202Z,19.63
2019-02-07T18:26:05.803Z,19.30
2019-02-07T18:28:35.111Z,20.50
2019-02-07T18:31:04.601Z,21.97
2019-02-07T18:33:33.859Z,23.07
2019-02-07T18:36:03.292Z,22.80
2019-02-07T18:38:32.609Z,22.90
2019-02-07T18:41:01.939Z,24.90
2019-02-07T18:43:31.597Z,26.63
2019-02-07T18:46:00.943Z,27.97
2019-02-07T18:48:30.298Z,26.27
2019-02-07T18:50:59.666Z,29.17
2019-02-07T18:53:29.086Z,32.63
2019-02-07T18:55:58.522Z,39.93
2019-02-07T18:58:27.862Z,39.73
2019-02-07T19:00:57.113Z,36.13
2019-02-07T19:03:26.402Z,31.27
2019-02-07T19:05:55.744Z,27.00
2019-02-07T19:08:25.183Z,26.33
2019-02-07T19:10:54.711Z,26.93
2019-02-07T19:13:24.082Z,23.80
2019-02-07T19:15:56.913Z,26.37
2019-02-07T19:18:26.160Z,30.77
2019-02-07T19:20:55.618Z,32.60
2019-02-07T19:23:26.177Z,31.43
2019-02-07T19:25:55.503Z,33.33
2019-02-07T19:28:24.888Z,23.53
2019-02-07T19:30:54.131Z,18.13
2019-02-07T19:33:23.478Z,18.53
2019-02-07T19:35:52.880Z,16.60
2019-02-07T19:38:22.497Z,15.93
2019-02-07T19:40:51.816Z,16.80
2019-02-07T19:43:21.194Z,19.33
2019-02-07T19:45:50.439Z,19.87
2019-02-07T19:48:19.727Z,19.63
2019-02-07T19:50:49.176Z,19.50
2019-02-07T19:53:18.716Z,19.60
2019-02-07T19:55:48.001Z,21.30
2019-02-07T19:58:17.279Z,20.50
2019-02-07T20:00:46.516Z,19.67
2019-02-07T20:03:15.795Z,20.53
2019-02-07T20:05:45.425Z,20.93
2019-02-07T20:08:15.034Z,21.20
2019-02-07T20:10:44.450Z,21.50
2019-02-07T20:13:13.739Z,24.03
2019-02-07T20:15:44.201Z,21.77
2019-02-07T20:18:14.617Z,22.37
2019-02-07T20:20:43.874Z,22.03
2019-02-07T20:23:13.270Z,22.27
2019-02-07T20:25:42.725Z,22.63
2019-02-07T20:28:11.981Z,22.70
2019-02-07T20:30:43.645Z,22.57
2019-02-07T20:33:13.100Z,22.43
2019-02-07T20:35:42.458Z,19.70
2019-02-07T20:38:12.041Z,19.30
2019-02-07T20:40:41.814Z,19.07
2019-02-07T20:43:11.126Z,18.20
2019-02-07T20:45:40.510Z,18.13
2019-02-07T20:48:09.947Z,19.63
2019-02-07T20:50:39.179Z,22.83
2019-02-07T20:53:10.575Z,21.23
2019-02-07T20:55:39.894Z,22.93
2019-02-07T20:58:09.478Z,21.10
2019-02-07T21:00:39.844Z,20.43
2019-02-07T21:03:10.157Z,19.70
2019-02-07T21:05:39.445Z,19.83
2019-02-07T21:08:08.666Z,19.57
2019-02-07T21:10:39.075Z,18.40
2019-02-07T21:13:08.983Z,18.87
2019-02-07T21:15:38.293Z,19.47
2019-02-07T21:18:07.822Z,19.00
2019-02-07T21:20:37.038Z,20.90
2019-02-07T21:23:06.933Z,22.83
2019-02-07T21:25:42.013Z,24.37
2019-02-07T21:28:11.712Z,25.07
2019-02-07T21:30:41.133Z,24.63
2019-02-07T21:33:10.481Z,22.83
2019-02-07T21:35:39.941Z,22.67
2019-02-07T21:38:09.394Z,21.67
2019-02-07T21:40:38.752Z,23.57
2019-02-07T21:43:08.208Z,23.13
2019-02-07T21:45:37.519Z,25.77
2019-02-07T21:48:09.794Z,27.10
2019-02-07T21:50:39.066Z,35.53
2019-02-07T21:53:08.281Z,35.30
2019-02-07T21:55:38.588Z,33.30
2019-02-07T21:58:09.158Z,29.50
2019-02-07T22:00:43.967Z,31.10
2019-02-07T22:03:14.159Z,29.87
2019-02-07T22:05:44.428Z,27.30
2019-02-07T22:08:13.805Z,27.47
2019-02-07T22:10:43.149Z,25.73
2019-02-07T22:13:12.808Z,25.07
2019-02-07T22:15:42.122Z,24.83
2019-02-07T22:18:11.680Z,25.33
2019-02-07T22:20:40.957Z,26.67
2019-02-07T22:23:10.158Z,26.20
2019-02-07T22:25:41.222Z,26.83
2019-02-07T22:28:11.437Z,26.77
2019-02-07T22:30:40.805Z,27.47
2019-02-07T22:33:10.096Z,28.27
2019-02-07T22:35:39.436Z,28.57
2019-02-07T22:38:09.176Z,28.57
2019-02-07T22:40:38.623Z,29.90
2019-02-07T22:43:08.216Z,30.00
2019-02-07T22:45:37.489Z,30.13
2019-02-07T22:48:07.079Z,29.40
2019-02-07T22:50:36.344Z,30.97
2019-02-07T22:53:05.880Z,29.23
2019-02-07T22:55:35.223Z,29.77
2019-02-07T22:58:06.286Z,30.63
2019-02-07T23:00:42.055Z,29.20
2019-02-07T23:03:19.299Z,30.30
2019-02-07T23:05:48.479Z,30.10
2019-02-07T23:08:18.771Z,28.73
2019-02-07T23:10:48.315Z,29.93
2019-02-07T23:13:17.691Z,31.00
2019-02-07T23:15:46.943Z,35.97
2019-02-07T23:18:16.246Z,38.60
2019-02-07T23:20:45.444Z,42.60
2019-02-07T23:23:14.774Z,41.57
2019-02-07T23:25:44.408Z,39.63
2019-02-07T23:28:13.653Z,37.17
2019-02-07T23:30:42.857Z,43.17
2019-02-07T23:33:12.335Z,45.97
2019-02-07T23:35:41.506Z,44.23
2019-02-07T23:38:10.692Z,45.03
2019-02-07T23:40:40.309Z,53.30
2019-02-07T23:43:10.098Z,55.83
2019-02-07T23:45:39.371Z,55.67
2019-02-07T23:48:08.750Z,47.53
2019-02-07T23:50:37.909Z,43.93
2019-02-07T23:53:14.436Z,41.93
2019-02-07T23:55:38.828Z,37.03
2019-02-07T23:58:07.287Z,36.30
